CEB192 RPLL-RPUY
Flight info
| Callsign | CEB192 |
|---|---|
| Flight time | 0h 29m |
| Altitude | 21000 |
| Route | CAB4V CAB W1 CUY DCT |
| Aircraft | A320/M-SDE2E3GHIJ1J3J4J5LM1ORWXYZ/C |
Departure
| Time | 2026-04-25 05:57 |
|---|---|
| Airport | Ninoy Aquino International Airport (RPLL) |
Arrival
| Time | 2026-04-25 06:27 |
|---|---|
| Airport | Cauayan Airport (RPUY) |
| Time | Latitude | Longitude | Altitude | Speed | Heading |
|---|---|---|---|---|---|
| 2026-04-25 05:50 | 14.52106 | 121.01002 | 59 ft | 2 kts | 41° |
| 2026-04-25 05:50 | 14.52094 | 121.00991 | 60 ft | 2 kts | 39° |
| 2026-04-25 05:50 | 14.52081 | 121.00981 | 62 ft | 2 kts | 33° |
| 2026-04-25 05:50 | 14.52066 | 121.00973 | 61 ft | 2 kts | 8° |
| 2026-04-25 05:51 | 14.52052 | 121.00974 | 61 ft | 1 kts | 316° |
| 2026-04-25 05:51 | 14.52050 | 121.00977 | 59 ft | 0 kts | 315° |
| 2026-04-25 05:53 | 14.52052 | 121.00974 | 64 ft | 1 kts | 315° |
| 2026-04-25 05:53 | 14.52064 | 121.00963 | 64 ft | 5 kts | 315° |
| 2026-04-25 05:54 | 14.52113 | 121.00912 | 66 ft | 11 kts | 315° |
| 2026-04-25 05:54 | 14.52164 | 121.00860 | 60 ft | 10 kts | 315° |
| 2026-04-25 05:54 | 14.52262 | 121.00759 | 63 ft | 11 kts | 315° |
| 2026-04-25 05:55 | 14.52319 | 121.00700 | 63 ft | 13 kts | 315° |
| 2026-04-25 05:55 | 14.52378 | 121.00640 | 69 ft | 11 kts | 315° |
| 2026-04-25 05:55 | 14.52431 | 121.00585 | 66 ft | 10 kts | 315° |
| 2026-04-25 05:55 | 14.52477 | 121.00537 | 63 ft | 7 kts | 315° |
| 2026-04-25 05:56 | 14.52493 | 121.00501 | 69 ft | 5 kts | 251° |
| 2026-04-25 05:56 | 14.52453 | 121.00456 | 66 ft | 11 kts | 227° |
| 2026-04-25 05:56 | 14.52405 | 121.00405 | 59 ft | 8 kts | 225° |
| 2026-04-25 05:56 | 14.52363 | 121.00400 | 62 ft | 7 kts | 140° |
| 2026-04-25 05:57 | 14.52300 | 121.00467 | 64 ft | 34 kts | 134° |
| 2026-04-25 05:57 | 14.51951 | 121.00828 | 65 ft | 105 kts | 135° |
| 2026-04-25 05:57 | 14.51281 | 121.01515 | 212 ft | 156 kts | 135° |
| 2026-04-25 05:57 | 14.50507 | 121.02318 | 1081 ft | 162 kts | 135° |
| 2026-04-25 05:58 | 14.49974 | 121.03347 | 2011 ft | 172 kts | 98° |
| 2026-04-25 05:58 | 14.50379 | 121.04521 | 2670 ft | 186 kts | 46° |
| 2026-04-25 05:58 | 14.51569 | 121.05196 | 2958 ft | 210 kts | 15° |
| 2026-04-25 05:58 | 14.53114 | 121.05367 | 3198 ft | 237 kts | 4° |
| 2026-04-25 05:59 | 14.54852 | 121.05389 | 3530 ft | 264 kts | 358° |
| 2026-04-25 05:59 | 14.56745 | 121.05226 | 4155 ft | 276 kts | 356° |
| 2026-04-25 05:59 | 14.58655 | 121.05039 | 5111 ft | 277 kts | 356° |
| 2026-04-25 05:59 | 14.60581 | 121.04822 | 6010 ft | 279 kts | 356° |
| 2026-04-25 06:00 | 14.62522 | 121.04759 | 6893 ft | 279 kts | 3° |
| 2026-04-25 06:00 | 14.64468 | 121.04815 | 7709 ft | 282 kts | 3° |
| 2026-04-25 06:00 | 14.66444 | 121.04881 | 8542 ft | 286 kts | 1° |
| 2026-04-25 06:00 | 14.68450 | 121.04916 | 9337 ft | 290 kts | 359° |
| 2026-04-25 06:01 | 14.70476 | 121.04914 | 10116 ft | 294 kts | 359° |
| 2026-04-25 06:01 | 14.71860 | 121.04895 | 10333 ft | 308 kts | 358° |
| 2026-04-25 06:01 | 14.74843 | 121.04821 | 10625 ft | 339 kts | 357° |
| 2026-04-25 06:01 | 14.77285 | 121.04742 | 11030 ft | 352 kts | 357° |
| 2026-04-25 06:02 | 14.79721 | 121.04658 | 11640 ft | 358 kts | 357° |
| 2026-04-25 06:02 | 14.82225 | 121.04570 | 12292 ft | 362 kts | 357° |
| 2026-04-25 06:02 | 14.84756 | 121.04482 | 12924 ft | 367 kts | 357° |
| 2026-04-25 06:02 | 14.87324 | 121.04397 | 13562 ft | 371 kts | 357° |
| 2026-04-25 06:03 | 14.89918 | 121.04313 | 14135 ft | 375 kts | 357° |
| 2026-04-25 06:03 | 14.92535 | 121.04232 | 14709 ft | 378 kts | 357° |
| 2026-04-25 06:03 | 14.95172 | 121.04150 | 15270 ft | 381 kts | 356° |
| 2026-04-25 06:03 | 14.97829 | 121.04064 | 15829 ft | 384 kts | 356° |
| 2026-04-25 06:04 | 14.99601 | 121.04006 | 16192 ft | 386 kts | 356° |
| 2026-04-25 06:04 | 15.03237 | 121.03886 | 16627 ft | 399 kts | 356° |
| 2026-04-25 06:04 | 15.06057 | 121.03795 | 16818 ft | 411 kts | 356° |
| 2026-04-25 06:04 | 15.07960 | 121.03734 | 17066 ft | 414 kts | 356° |
| 2026-04-25 06:05 | 15.10853 | 121.03641 | 17492 ft | 418 kts | 356° |
| 2026-04-25 06:05 | 15.13773 | 121.03547 | 17951 ft | 421 kts | 356° |
| 2026-04-25 06:05 | 15.16717 | 121.03453 | 18379 ft | 424 kts | 356° |
| 2026-04-25 06:05 | 15.19675 | 121.03358 | 18759 ft | 427 kts | 356° |
| 2026-04-25 06:06 | 15.22657 | 121.03263 | 19122 ft | 430 kts | 356° |
| 2026-04-25 06:06 | 15.25659 | 121.03168 | 19483 ft | 433 kts | 356° |
| 2026-04-25 06:06 | 15.28688 | 121.03071 | 19848 ft | 436 kts | 356° |
| 2026-04-25 06:06 | 15.31733 | 121.02972 | 20209 ft | 440 kts | 356° |
| 2026-04-25 06:07 | 15.34799 | 121.02872 | 20574 ft | 443 kts | 356° |
| 2026-04-25 06:07 | 15.37891 | 121.02770 | 20837 ft | 446 kts | 356° |
| 2026-04-25 06:07 | 15.41011 | 121.02668 | 20906 ft | 453 kts | 356° |
| 2026-04-25 06:07 | 15.44197 | 121.02593 | 20910 ft | 465 kts | 359° |
| 2026-04-25 06:08 | 15.47458 | 121.02921 | 20904 ft | 477 kts | 8° |
| 2026-04-25 06:08 | 15.50694 | 121.03793 | 20904 ft | 485 kts | 18° |
| 2026-04-25 06:08 | 15.53798 | 121.05187 | 20905 ft | 488 kts | 25° |
| 2026-04-25 06:08 | 15.56854 | 121.06721 | 20902 ft | 488 kts | 24° |
| 2026-04-25 06:09 | 15.59929 | 121.08258 | 20923 ft | 494 kts | 24° |
| 2026-04-25 06:09 | 15.63048 | 121.09808 | 20923 ft | 499 kts | 24° |
| 2026-04-25 06:09 | 15.66189 | 121.11364 | 20920 ft | 501 kts | 24° |
| 2026-04-25 06:09 | 15.69298 | 121.12904 | 20925 ft | 502 kts | 24° |
| 2026-04-25 06:10 | 15.72486 | 121.14487 | 20930 ft | 502 kts | 24° |
| 2026-04-25 06:10 | 15.75640 | 121.16055 | 20929 ft | 502 kts | 24° |
| 2026-04-25 06:10 | 15.78742 | 121.17600 | 20927 ft | 502 kts | 24° |
| 2026-04-25 06:10 | 15.81886 | 121.19171 | 20944 ft | 501 kts | 24° |
| 2026-04-25 06:11 | 15.85030 | 121.20744 | 20942 ft | 502 kts | 24° |
| 2026-04-25 06:11 | 15.88173 | 121.22314 | 20941 ft | 502 kts | 24° |
| 2026-04-25 06:11 | 15.91322 | 121.23883 | 20944 ft | 501 kts | 24° |
| 2026-04-25 06:11 | 15.94445 | 121.25438 | 20941 ft | 493 kts | 24° |
| 2026-04-25 06:12 | 15.97527 | 121.26974 | 20944 ft | 491 kts | 24° |
| 2026-04-25 06:12 | 16.00599 | 121.28509 | 20712 ft | 490 kts | 24° |
| 2026-04-25 06:12 | 16.03667 | 121.30040 | 19660 ft | 484 kts | 24° |
| 2026-04-25 06:12 | 16.06661 | 121.31536 | 18626 ft | 475 kts | 24° |
| 2026-04-25 06:13 | 16.09622 | 121.33017 | 17968 ft | 468 kts | 24° |
| 2026-04-25 06:13 | 16.12539 | 121.34476 | 17216 ft | 462 kts | 24° |
| 2026-04-25 06:13 | 16.15392 | 121.35904 | 16105 ft | 450 kts | 24° |
| 2026-04-25 06:14 | 16.20787 | 121.38604 | 14667 ft | 411 kts | 24° |
| 2026-04-25 06:14 | 16.23337 | 121.39880 | 14009 ft | 406 kts | 25° |
| 2026-04-25 06:14 | 16.25887 | 121.41155 | 13295 ft | 407 kts | 25° |
| 2026-04-25 06:14 | 16.28425 | 121.42424 | 12660 ft | 403 kts | 24° |
| 2026-04-25 06:15 | 16.30948 | 121.43688 | 12018 ft | 401 kts | 24° |
| 2026-04-25 06:15 | 16.33452 | 121.44944 | 11397 ft | 398 kts | 25° |
| 2026-04-25 06:15 | 16.35901 | 121.46176 | 11193 ft | 383 kts | 25° |
| 2026-04-25 06:15 | 16.38248 | 121.47357 | 11071 ft | 367 kts | 25° |
| 2026-04-25 06:16 | 16.40503 | 121.48487 | 10950 ft | 352 kts | 25° |
| 2026-04-25 06:16 | 16.42671 | 121.49574 | 10829 ft | 339 kts | 25° |
| 2026-04-25 06:16 | 16.44764 | 121.50621 | 10711 ft | 328 kts | 24° |
| 2026-04-25 06:16 | 16.46783 | 121.51632 | 10589 ft | 317 kts | 24° |
| 2026-04-25 06:17 | 16.48745 | 121.52616 | 10418 ft | 309 kts | 24° |
| 2026-04-25 06:17 | 16.50667 | 121.53580 | 10240 ft | 304 kts | 24° |
| 2026-04-25 06:17 | 16.52569 | 121.54533 | 10170 ft | 303 kts | 24° |
| 2026-04-25 06:17 | 16.54468 | 121.55487 | 10047 ft | 303 kts | 24° |
| 2026-04-25 06:18 | 16.56363 | 121.56444 | 9800 ft | 304 kts | 24° |
| 2026-04-25 06:18 | 16.58272 | 121.57406 | 9332 ft | 305 kts | 25° |
| 2026-04-25 06:18 | 16.60172 | 121.58363 | 8993 ft | 302 kts | 25° |
| 2026-04-25 06:18 | 16.62050 | 121.59345 | 8601 ft | 301 kts | 30° |
| 2026-04-25 06:19 | 16.63690 | 121.60693 | 8212 ft | 300 kts | 46° |
| 2026-04-25 06:19 | 16.65018 | 121.62371 | 7831 ft | 299 kts | 51° |
| 2026-04-25 06:19 | 16.66301 | 121.64063 | 7416 ft | 296 kts | 52° |
| 2026-04-25 06:19 | 16.67552 | 121.65712 | 6970 ft | 292 kts | 52° |
| 2026-04-25 06:20 | 16.68813 | 121.67374 | 6576 ft | 292 kts | 52° |
| 2026-04-25 06:20 | 16.70071 | 121.69032 | 6168 ft | 288 kts | 52° |
| 2026-04-25 06:20 | 16.71291 | 121.70641 | 5787 ft | 277 kts | 52° |
| 2026-04-25 06:20 | 16.72462 | 121.72183 | 5426 ft | 266 kts | 53° |
| 2026-04-25 06:21 | 16.73585 | 121.73664 | 5083 ft | 255 kts | 52° |
| 2026-04-25 06:21 | 16.74668 | 121.75091 | 4753 ft | 246 kts | 53° |
| 2026-04-25 06:21 | 16.75711 | 121.76468 | 4419 ft | 238 kts | 53° |
| 2026-04-25 06:21 | 16.76626 | 121.77922 | 3815 ft | 242 kts | 60° |
| 2026-04-25 06:22 | 16.77504 | 121.79444 | 3214 ft | 247 kts | 59° |
| 2026-04-25 06:22 | 16.78442 | 121.80914 | 2911 ft | 236 kts | 56° |
| 2026-04-25 06:22 | 16.79364 | 121.82254 | 2816 ft | 218 kts | 54° |
| 2026-04-25 06:22 | 16.80264 | 121.83480 | 2782 ft | 209 kts | 52° |
| 2026-04-25 06:23 | 16.81212 | 121.84576 | 2755 ft | 196 kts | 45° |
| 2026-04-25 06:23 | 16.82184 | 121.85501 | 2728 ft | 184 kts | 44° |
| 2026-04-25 06:23 | 16.83099 | 121.86415 | 2674 ft | 184 kts | 40° |
| 2026-04-25 06:23 | 16.84229 | 121.87004 | 2560 ft | 183 kts | 7° |
| 2026-04-25 06:24 | 16.85421 | 121.86711 | 2397 ft | 178 kts | 321° |
| 2026-04-25 06:24 | 16.86121 | 121.85677 | 2241 ft | 176 kts | 294° |
| 2026-04-25 06:24 | 16.86729 | 121.84583 | 2084 ft | 171 kts | 303° |
| 2026-04-25 06:24 | 16.87390 | 121.83615 | 2001 ft | 155 kts | 306° |
| 2026-04-25 06:25 | 16.88013 | 121.82722 | 1955 ft | 149 kts | 305° |
| 2026-04-25 06:25 | 16.88616 | 121.81873 | 1756 ft | 146 kts | 308° |
| 2026-04-25 06:25 | 16.88835 | 121.81596 | 1656 ft | 146 kts | 309° |
| 2026-04-25 06:25 | 16.89642 | 121.80486 | 1314 ft | 145 kts | 304° |
| 2026-04-25 06:26 | 16.90403 | 121.79320 | 1034 ft | 146 kts | 304° |
| 2026-04-25 06:26 | 16.90977 | 121.78445 | 817 ft | 146 kts | 304° |
| 2026-04-25 06:26 | 16.91537 | 121.77568 | 628 ft | 145 kts | 303° |
| 2026-04-25 06:26 | 16.92097 | 121.76695 | 429 ft | 144 kts | 304° |
| 2026-04-25 06:27 | 16.92660 | 121.75830 | 243 ft | 143 kts | 304° |
| 2026-04-25 06:27 | 16.93159 | 121.75064 | 211 ft | 94 kts | 304° |
| 2026-04-25 06:27 | 16.93361 | 121.74756 | 211 ft | 20 kts | 303° |
| 2026-04-25 06:27 | 16.93435 | 121.74643 | 211 ft | 17 kts | 307° |
| 2026-04-25 06:28 | 16.93498 | 121.74570 | 210 ft | 7 kts | 289° |
| 2026-04-25 06:28 | 16.93484 | 121.74567 | 214 ft | 3 kts | 147° |
| 2026-04-25 06:28 | 16.93452 | 121.74616 | 213 ft | 9 kts | 123° |
| 2026-04-25 06:28 | 16.93411 | 121.74681 | 215 ft | 13 kts | 123° |
| 2026-04-25 06:29 | 16.93351 | 121.74775 | 210 ft | 21 kts | 124° |
| 2026-04-25 06:29 | 16.93243 | 121.74940 | 212 ft | 35 kts | 124° |
| 2026-04-25 06:29 | 16.93089 | 121.75176 | 211 ft | 40 kts | 124° |
| 2026-04-25 06:29 | 16.92977 | 121.75346 | 207 ft | 19 kts | 128° |
| 2026-04-25 06:30 | 16.92915 | 121.75374 | 210 ft | 7 kts | 167° |
| 2026-04-25 06:30 | 16.92872 | 121.75384 | 215 ft | 5 kts | 168° |
| 2026-04-25 06:30 | 16.92840 | 121.75390 | 208 ft | 4 kts | 172° |
| 2026-04-25 06:30 | 16.92819 | 121.75382 | 216 ft | 3 kts | 213° |
| 2026-04-25 06:31 | 16.92804 | 121.75372 | 217 ft | 2 kts | 214° |
| 2026-04-25 06:31 | 16.92799 | 121.75368 | 217 ft | 0 kts | 213° |